Red Hook, New York
Current Conditions -  °F | °C
As of 2:53 AM on Monday 26 Jan 2015 (Local Time) from KPOU Reporting Station
Overcast Overcast  
Wind Chill:   Ceiling: 9000
Heat Index: 19°   Visibility: 10mi
Dew Point:   Wind: 9mph
Humidity: 47%   Direction: 20°NNE
Pressure: 30.06"   Gusts: NA
Location:  42°N, 73.88°W
Report Text: KPOU 260753Z 02008KT 10SM OVC090 M07/M17 A3006 RMK AO2 SLP177 T10721167
Loading
Personal Weather Stations






























Interactive Weather Map New forecast layout! Learn more

10-Day Weather Forecast

Advertisements
Track Severe Weather on mobile